Terminal Aerodrome Forecast
Issued by NWS Twin Cities, MN

Home | Current Version | Previous Version | Text Only | Print | Product List | Glossary On
Versions: 1 2 3 4 5 6 7 8 9 10 11 12 13 14 15 16 17 18 19 20 21 22 23 24 25
000
FTUS43 KMPX 181720
TAFMSP
TAF
KMSP 181720Z 1818/1924 10011G18KT P6SM SCT250
     FM190500 10014G23KT 6SM -RA OVC050
     FM190800 12016G25KT 4SM -RA SCT015 OVC025
     FM191400 19012G18KT P6SM VCSH OVC020
     FM191700 26011G18KT P6SM SCT020 OVC035
     FM192000 32013G21KT P6SM SCT020 BKN040=

USA.gov is the U.S. government's official web portal to all federal, state and local government web resources and services.